Terminal Aerodrome Forecast
Issued by NWS

Home | Current Version | Previous Version | Graphics & Text | Print | Product List | Glossary On
Versions: 1 2 3 4 5 6 7 8 9 10 11 12 13 14 15 16 17 18 19 20 21 22 23 24 25 26 27 28 29 30 31
000
FTUS43 KLOT 191300 AAA
TAFDPA
TAF AMD
KDPA 191333Z 1914/2012 19011KT P6SM -SHSN SCT030 OVC060
     FM191600 25014G20KT P6SM -SHSN SCT025 OVC035
     FM191800 28018G25KT P6SM -SHSN BKN025 OVC035
      TEMPO 1918/1921 4SM -SN BKN015 OVC025
     FM200000 27013G23KT P6SM BKN035
     FM200700 27012G16KT P6SM BKN200=

USA.gov is the U.S. government's official web portal to all federal, state and local government web resources and services.